Quinlan, TX

12:04 PM CST on February 09, 2016 (GMT -0600)
Weiland | | Change Station
CLOSE
Current Station
Personal Weather Station
Location: Quinlan, TX
Elevation: 520 ft
Nearby Weather Stations

Elev 520 ft 32.99 °N, 96.06 °W | Updated 4 minutes ago

Clear
Clear
54.1 °F
Feels Like 54.1 °F
N
11.0
Wind Variable Wind from NW
Gusts 23.0 mph

Today
High -- | Low -- °F
--% Chance of Precip.
Yesterday
High -- | Low -- °F
Precip. -- in
Pressure 30.28 in
Visibility 10.0 miles
Clouds Clear
Dew Point 21 °F
Humidity 27%
Rainfall 0.00 in
Snow Depth Not available.
7:13 AM 6:03 PM
New Moon, 2% visible
METAR KGVT 091755Z AUTO 31013G17KT 10SM CLR 13/M09 A3028 RMK AO2
Pressure 30.28 in
Visibility 10.0 miles
Clouds Clear
Dew Point 21 °F
Humidity 27%
Rainfall 0.00 in
Snow Depth Not available.
7:13 AM 6:03 PM
New Moon, 2% visible
METAR KGVT 091755Z AUTO 31013G17KT 10SM CLR 13/M09 A3028 RMK AO2

10-Day Weather Forecast

Almanac

Astronomy

Feb. 09, 2016 Rise Set
Actual Time
Civil Twilight
Nautical Twilight
Astronomical Twilight
Moon
Length of Visible Light
Length of Day
Tomorrow will be .
, % of the Moon is Illuminated

Today's Extremes

State Highs State Lows

Community

WunderPhotos

Upload Photos

1,891,650 photos uploaded!

WunderBlog® & News

Nearby

Air Quality

  Air Quality AQ Index Pollutant
Not available.

Snow Depth

Station Depth Elevation

Earthquake Activity

City Distance Mag. Time & Date
Minimum magnitude displayed is 2.5.

Coastal Water Temperatures

Place Temperature

Stations

Nearby Weather Stations

Station Location Temp. Windchill Dew Point Humidity Wind Precip. Elev Updated Type
                   

Watches & Warnings

There are currently no watches in effect.